createdAt,value
2019-01-19T00:04:23.801Z,99.90
2019-01-19T00:14:35.829Z,99.90
2019-01-19T00:25:09.260Z,99.90
2019-01-19T00:35:49.893Z,99.90
2019-01-19T00:46:20.359Z,99.90
2019-01-19T00:56:43.497Z,99.90
2019-01-19T01:07:36.019Z,99.90
2019-01-19T01:17:55.229Z,99.90
2019-01-19T01:28:20.429Z,99.90
2019-01-19T01:38:49.641Z,99.90
2019-01-19T01:49:26.457Z,99.90
2019-01-19T02:00:05.959Z,99.90
2019-01-19T02:10:51.431Z,99.90
2019-01-19T02:21:36.141Z,99.90
2019-01-19T02:32:06.675Z,99.90
2019-01-19T02:42:42.310Z,99.90
2019-01-19T02:53:25.872Z,99.90
2019-01-19T03:04:02.134Z,99.90
2019-01-19T03:14:48.367Z,99.90
2019-01-19T03:25:23.353Z,99.90
2019-01-19T03:35:39.554Z,99.90
2019-01-19T03:46:29.161Z,99.90
2019-01-19T03:57:09.749Z,99.90
2019-01-19T04:07:26.352Z,99.90
2019-01-19T04:17:55.857Z,99.90
2019-01-19T04:28:03.055Z,99.90
2019-01-19T04:38:08.338Z,99.90
2019-01-19T04:48:14.047Z,99.90
2019-01-19T04:58:19.395Z,99.90
2019-01-19T05:08:24.738Z,99.90
2019-01-19T05:18:30.282Z,99.90
2019-01-19T05:28:35.793Z,99.90
2019-01-19T05:38:41.167Z,99.90
2019-01-19T05:48:46.500Z,99.90
2019-01-19T05:58:51.841Z,99.90
2019-01-19T06:08:57.178Z,99.90
2019-01-19T06:19:02.684Z,99.90
2019-01-19T06:29:07.886Z,99.90
2019-01-19T06:39:13.210Z,99.90
2019-01-19T06:49:18.573Z,99.90
2019-01-19T06:59:23.983Z,99.90
2019-01-19T07:09:29.291Z,99.90
2019-01-19T07:19:34.719Z,99.90
2019-01-19T07:29:40.033Z,99.90
2019-01-19T07:39:45.340Z,99.90
2019-01-19T07:49:50.625Z,99.90
2019-01-19T07:59:55.927Z,99.90
2019-01-19T08:10:01.287Z,99.90
2019-01-19T08:20:07.239Z,99.90
2019-01-19T08:30:15.793Z,99.90
2019-01-19T08:40:26.487Z,99.90
2019-01-19T08:50:31.855Z,99.90
2019-01-19T09:00:37.178Z,99.90
2019-01-19T09:10:42.516Z,99.90
2019-01-19T09:20:47.946Z,99.90
2019-01-19T09:30:53.367Z,99.40
2019-01-19T09:40:58.987Z,99.90
2019-01-19T09:51:04.468Z,99.60
2019-01-19T10:01:10.576Z,98.50
2019-01-19T10:11:16.244Z,97.30
2019-01-19T10:21:21.604Z,96.40
2019-01-19T10:31:26.937Z,96.40
2019-01-19T10:41:32.255Z,95.50
2019-01-19T10:51:37.682Z,94.20
2019-01-19T11:01:42.964Z,93.20
2019-01-19T11:11:48.290Z,92.40
2019-01-19T11:21:53.656Z,92.80
2019-01-19T11:31:59.047Z,94.20
2019-01-19T11:42:04.394Z,93.80
2019-01-19T11:52:09.841Z,93.30
2019-01-19T12:02:15.312Z,95.40
2019-01-19T12:12:20.776Z,96.70
2019-01-19T12:22:27.132Z,94.50
2019-01-19T12:32:32.635Z,93.60
2019-01-19T12:42:38.124Z,93.70
2019-01-19T12:52:43.652Z,92.80
2019-01-19T13:02:49.099Z,91.50
2019-01-19T13:13:16.223Z,91.80
2019-01-19T13:23:48.675Z,92.00
2019-01-19T13:34:47.779Z,92.20
2019-01-19T13:45:49.208Z,93.30
2019-01-19T13:56:35.665Z,93.60
2019-01-19T14:07:26.567Z,93.90
2019-01-19T14:17:55.988Z,93.70
2019-01-19T14:28:45.084Z,93.80
2019-01-19T14:39:32.689Z,94.20
2019-01-19T14:50:29.478Z,95.30
2019-01-19T15:00:56.236Z,96.00
2019-01-19T15:11:30.152Z,96.10
2019-01-19T15:22:03.374Z,96.50
2019-01-19T15:32:47.446Z,97.20
2019-01-19T15:43:25.438Z,97.90
2019-01-19T15:54:20.726Z,98.90
2019-01-19T16:05:02.922Z,99.50
2019-01-19T16:15:42.219Z,99.90
2019-01-19T16:26:12.070Z,99.90
2019-01-19T16:37:07.579Z,99.90
2019-01-19T16:47:41.710Z,99.90
2019-01-19T16:58:26.492Z,99.90
2019-01-19T17:09:19.571Z,99.90
2019-01-19T17:20:29.746Z,99.90
2019-01-19T17:31:37.152Z,99.90
2019-01-19T17:42:28.818Z,99.90
2019-01-19T17:53:12.218Z,99.90
2019-01-19T18:03:41.800Z,99.90
2019-01-19T18:14:39.731Z,99.90
2019-01-19T18:25:07.950Z,99.90
2019-01-19T18:35:39.878Z,99.90
2019-01-19T18:46:33.241Z,99.90
2019-01-19T18:57:25.758Z,99.90
2019-01-19T19:08:02.210Z,99.90
2019-01-19T19:18:49.718Z,99.90
2019-01-19T19:29:41.399Z,99.90
2019-01-19T19:40:15.361Z,99.90
2019-01-19T19:50:58.293Z,99.90
2019-01-19T20:01:03.701Z,99.90
2019-01-19T20:11:09.005Z,99.90
2019-01-19T20:21:14.382Z,99.90
2019-01-19T20:31:19.745Z,99.90
2019-01-19T20:41:25.123Z,99.90
2019-01-19T20:51:30.499Z,99.90
2019-01-19T21:01:36.008Z,99.90
2019-01-19T21:11:41.413Z,99.90
2019-01-19T21:21:46.905Z,99.90
2019-01-19T21:31:52.267Z,99.90
2019-01-19T21:41:57.591Z,99.90
2019-01-19T21:52:02.979Z,99.90
2019-01-19T22:02:08.369Z,99.90
2019-01-19T22:12:13.978Z,99.90
2019-01-19T22:22:19.386Z,99.90
2019-01-19T22:32:25.029Z,99.90
2019-01-19T22:42:30.380Z,99.90
2019-01-19T22:52:35.700Z,99.90
2019-01-19T23:02:41.106Z,99.90
2019-01-19T23:12:47.571Z,99.90
2019-01-19T23:22:52.944Z,99.90
2019-01-19T23:32:58.382Z,99.90
2019-01-19T23:43:03.677Z,99.90
2019-01-19T23:53:09.090Z,99.90
